createdAt,value
2018-12-11T00:00:07.740Z,99882.05
2018-12-11T00:05:10.196Z,99887.06
2018-12-11T00:10:12.705Z,99882.91
2018-12-11T00:15:15.188Z,99882.39
2018-12-11T00:20:17.656Z,99895.57
2018-12-11T00:25:20.277Z,99896.78
2018-12-11T00:30:22.733Z,99902.00
2018-12-11T00:35:25.429Z,99900.94
2018-12-11T00:40:28.056Z,99906.34
2018-12-11T00:45:30.981Z,99904.59
2018-12-11T00:50:33.499Z,99904.35
2018-12-11T00:55:36.780Z,99900.80
2018-12-11T01:00:39.560Z,99897.84
2018-12-11T01:05:42.076Z,99888.73
2018-12-11T01:10:44.536Z,99900.01
2018-12-11T01:15:47.001Z,99895.67
2018-12-11T01:20:49.692Z,99904.23
2018-12-11T01:25:52.487Z,99907.62
2018-12-11T01:30:54.944Z,99905.80
2018-12-11T01:35:57.408Z,99906.59
2018-12-11T01:40:59.868Z,99906.66
2018-12-11T01:46:02.444Z,99901.89
2018-12-11T01:51:04.996Z,99910.66
2018-12-11T01:56:07.535Z,99906.92
2018-12-11T02:01:09.992Z,99912.48
2018-12-11T02:06:12.509Z,99909.95
2018-12-11T02:11:14.969Z,99918.63
2018-12-11T02:16:17.464Z,99908.92
2018-12-11T02:21:19.984Z,99908.92
2018-12-11T02:26:22.577Z,99907.36
2018-12-11T02:31:25.037Z,99906.14
2018-12-11T02:36:27.608Z,99903.44
2018-12-11T02:41:30.115Z,99895.47
2018-12-11T02:46:32.608Z,99907.53
2018-12-11T02:51:35.082Z,99912.72
2018-12-11T02:56:37.809Z,99917.06
2018-12-11T03:01:40.311Z,99915.50
2018-12-11T03:06:42.773Z,99916.28
2018-12-11T03:11:45.260Z,99915.77
2018-12-11T03:16:47.796Z,99919.84
2018-12-11T03:21:50.286Z,99918.27
2018-12-11T03:26:52.797Z,99922.70
2018-12-11T03:31:55.447Z,99923.13
2018-12-11T03:36:57.912Z,99924.70
2018-12-11T03:42:00.421Z,99918.88
2018-12-11T03:47:02.915Z,99921.83
2018-12-11T03:52:05.373Z,99927.96
2018-12-11T03:57:07.866Z,99924.37
2018-12-11T04:02:10.394Z,99927.42
2018-12-11T04:07:12.899Z,99918.50
2018-12-11T04:12:15.544Z,99922.72
2018-12-11T04:17:18.533Z,99930.26
2018-12-11T04:22:21.024Z,99920.73
2018-12-11T04:27:23.579Z,99923.75
2018-12-11T04:32:26.164Z,99932.52
2018-12-11T04:37:28.818Z,99922.03
2018-12-11T04:42:31.282Z,99920.82
2018-12-11T04:47:33.810Z,99923.05
2018-12-11T04:52:36.268Z,99932.22
2018-12-11T04:57:38.780Z,99930.16
2018-12-11T05:02:41.269Z,99937.61
2018-12-11T05:07:43.728Z,99937.34
2018-12-11T05:12:46.242Z,99943.16
2018-12-11T05:17:48.845Z,99949.55
2018-12-11T05:22:51.358Z,99950.56
2018-12-11T05:27:54.140Z,99949.18
2018-12-11T05:32:56.638Z,99949.00
2018-12-11T05:37:59.279Z,99954.21
2018-12-11T05:43:01.743Z,99949.88
2018-12-11T05:48:04.279Z,99952.83
2018-12-11T05:53:07.195Z,99950.47
2018-12-11T05:58:09.688Z,99952.22
2018-12-11T06:03:12.164Z,99947.09
2018-12-11T06:08:14.840Z,99954.45
2018-12-11T06:13:17.357Z,99951.67
2018-12-11T06:18:19.880Z,99955.84
2018-12-11T06:23:22.341Z,99956.62
2018-12-11T06:28:24.796Z,99940.41
2018-12-11T06:33:27.256Z,99944.98
2018-12-11T06:38:30.248Z,99954.27
2018-12-11T06:43:32.718Z,99963.37
2018-12-11T06:48:35.182Z,99960.69
2018-12-11T06:53:37.640Z,99973.77
2018-12-11T06:58:40.861Z,99970.20
2018-12-11T07:03:43.528Z,99980.88
2018-12-11T07:08:45.988Z,99987.44
2018-12-11T07:13:48.448Z,99994.55
2018-12-11T07:18:50.960Z,99991.20
2018-12-11T07:23:53.644Z,100000.30
2018-12-11T07:28:56.112Z,99999.16
2018-12-11T07:33:58.603Z,99998.03
2018-12-11T07:39:01.068Z,100009.45
2018-12-11T07:44:03.612Z,99993.69
2018-12-11T07:49:06.204Z,100004.55
2018-12-11T07:54:09.026Z,99998.81
2018-12-11T07:59:11.937Z,99988.13
2018-12-11T08:04:14.425Z,100008.73
2018-12-11T08:09:16.889Z,100010.61
2018-12-11T08:14:19.417Z,100017.50
2018-12-11T08:19:21.914Z,100034.20
2018-12-11T08:24:24.745Z,100039.19
2018-12-11T08:29:27.272Z,100029.88
2018-12-11T08:34:30.009Z,100020.34
2018-12-11T08:39:32.480Z,100034.38
2018-12-11T08:44:35.193Z,100032.45
2018-12-11T08:49:37.708Z,100043.05
2018-12-11T08:54:40.197Z,100040.84
2018-12-11T08:59:42.713Z,100050.05
2018-12-11T09:04:46.075Z,100065.88
2018-12-11T09:09:48.597Z,100063.89
2018-12-11T09:14:51.064Z,100075.39
2018-12-11T09:19:54.576Z,100068.88
2018-12-11T09:24:57.041Z,100084.56
2018-12-11T09:29:59.501Z,100089.66
2018-12-11T09:35:01.974Z,100094.67
2018-12-11T09:40:05.442Z,100088.13
2018-12-11T09:45:07.928Z,100092.28
2018-12-11T09:50:10.466Z,100090.52
2018-12-11T09:55:13.019Z,100090.52
2018-12-11T10:00:15.493Z,100088.16
2018-12-11T10:05:17.989Z,100095.27
2018-12-11T10:10:20.488Z,100097.48
2018-12-11T10:15:23.560Z,100102.61
2018-12-11T10:20:26.149Z,100110.03
2018-12-11T10:25:28.952Z,100124.25
2018-12-11T10:30:33.488Z,100116.05
2018-12-11T10:35:35.955Z,100111.97
2018-12-11T10:40:38.413Z,100114.70
2018-12-11T10:45:40.900Z,100119.98
2018-12-11T10:50:43.385Z,100118.18
2018-12-11T10:55:45.848Z,100119.38
2018-12-11T11:00:50.231Z,100118.37
2018-12-11T11:05:52.704Z,100119.86
2018-12-11T11:10:55.200Z,100118.44
2018-12-11T11:15:57.732Z,100129.29
2018-12-11T11:21:00.669Z,100136.94
2018-12-11T11:26:03.133Z,100139.52
2018-12-11T11:31:05.629Z,100142.09
2018-12-11T11:36:08.131Z,100148.42
2018-12-11T11:41:10.597Z,100147.84
2018-12-11T11:46:13.064Z,100145.37
2018-12-11T11:51:15.552Z,100150.91
2018-12-11T11:56:18.012Z,100153.31
2018-12-11T12:01:20.536Z,100152.71
2018-12-11T12:06:23.026Z,100154.09
2018-12-11T12:11:25.518Z,100172.12
2018-12-11T12:16:28.012Z,100170.13
2018-12-11T12:21:30.589Z,100174.66
2018-12-11T12:26:33.112Z,100178.94
2018-12-11T12:31:35.652Z,100174.41
2018-12-11T12:36:38.276Z,100175.86
2018-12-11T12:41:40.913Z,100177.44
2018-12-11T12:46:43.680Z,100181.78
2018-12-11T12:51:46.194Z,100190.44
2018-12-11T12:56:48.681Z,100181.97
2018-12-11T13:01:51.379Z,100182.16
2018-12-11T13:06:53.875Z,100190.09
2018-12-11T13:11:56.373Z,100194.03
2018-12-11T13:16:58.839Z,100211.03
2018-12-11T13:22:01.303Z,100206.09
2018-12-11T13:27:03.824Z,100209.64
2018-12-11T13:32:06.316Z,100211.62
2018-12-11T13:37:08.808Z,100213.36
2018-12-11T13:42:11.365Z,100214.19
2018-12-11T13:47:13.903Z,100218.38
2018-12-11T13:52:16.361Z,100223.80
2018-12-11T13:57:18.828Z,100227.47
2018-12-11T14:02:21.328Z,100235.09
2018-12-11T14:07:23.820Z,100236.25
2018-12-11T14:12:26.284Z,100234.20
2018-12-11T14:17:28.836Z,100244.81
2018-12-11T14:22:31.463Z,100243.88
2018-12-11T14:27:34.369Z,100252.02
2018-12-11T14:32:36.873Z,100255.43
2018-12-11T14:37:39.997Z,100253.00
2018-12-11T14:42:42.501Z,100253.41
2018-12-11T14:47:44.998Z,100254.37
2018-12-11T14:52:48.137Z,100260.83
2018-12-11T14:57:50.595Z,100259.94
2018-12-11T15:02:53.097Z,100253.14
2018-12-11T15:07:55.720Z,100267.31
2018-12-11T15:12:58.488Z,100265.92
2018-12-11T15:18:00.962Z,100260.56
2018-12-11T15:23:03.455Z,100270.95
2018-12-11T15:28:05.937Z,100270.80
2018-12-11T15:33:08.425Z,100279.49
2018-12-11T15:38:10.898Z,100285.16
2018-12-11T15:43:14.553Z,100278.11
2018-12-11T15:48:17.176Z,100274.73
2018-12-11T15:53:19.697Z,100283.17
2018-12-11T15:58:24.971Z,100286.50
2018-12-11T16:03:26.714Z,100283.55
2018-12-11T16:08:29.190Z,100283.31
2018-12-11T16:13:31.659Z,100288.41
2018-12-11T16:18:34.137Z,100294.83
2018-12-11T16:23:36.605Z,100301.76
2018-12-11T16:28:39.069Z,100308.51
2018-12-11T16:33:41.528Z,100312.86
2018-12-11T16:38:44.006Z,100319.42
2018-12-11T16:43:46.473Z,100322.37
2018-12-11T16:48:48.988Z,100323.05
2018-12-11T16:53:52.264Z,100327.97
2018-12-11T16:58:54.817Z,100330.70
2018-12-11T17:03:57.344Z,100338.50
2018-12-11T17:08:59.899Z,100337.75
2018-12-11T17:14:02.866Z,100352.11
2018-12-11T17:19:05.341Z,100353.38
2018-12-11T17:24:07.810Z,100352.83
2018-12-11T17:29:10.272Z,100349.94
2018-12-11T17:34:13.262Z,100359.05
2018-12-11T17:39:16.089Z,100359.05
2018-12-11T17:44:18.569Z,100366.39
2018-12-11T17:49:21.055Z,100370.92
2018-12-11T17:54:23.515Z,100367.25
2018-12-11T17:59:26.016Z,100364.18
2018-12-11T18:04:28.476Z,100373.03
2018-12-11T18:09:31.013Z,100369.47
2018-12-11T18:14:33.481Z,100370.82
2018-12-11T18:19:35.944Z,100379.66
2018-12-11T18:24:38.546Z,100387.01
2018-12-11T18:29:41.144Z,100389.97
2018-12-11T18:34:44.182Z,100393.00
2018-12-11T18:39:46.658Z,100401.86
2018-12-11T18:44:49.134Z,100400.16
2018-12-11T18:49:51.606Z,100404.70
2018-12-11T18:54:54.084Z,100410.43
2018-12-11T18:59:56.574Z,100406.49
2018-12-11T19:04:59.263Z,100413.05
2018-12-11T19:10:02.466Z,100418.00
2018-12-11T19:15:05.545Z,100419.35
2018-12-11T19:20:08.112Z,100420.30
2018-12-11T19:25:14.430Z,100418.97
2018-12-11T19:30:16.912Z,100419.20
2018-12-11T19:35:19.429Z,100414.22
2018-12-11T19:40:22.716Z,100419.77
2018-12-11T19:45:25.380Z,100423.13
2018-12-11T19:50:28.536Z,100426.89
2018-12-11T19:55:31.132Z,100422.28
2018-12-11T20:00:34.121Z,100429.22
2018-12-11T20:05:36.593Z,100431.45
2018-12-11T20:10:39.057Z,100431.99
2018-12-11T20:15:41.526Z,100429.84
2018-12-11T20:20:43.988Z,100432.34
2018-12-11T20:25:46.490Z,100431.05
2018-12-11T20:30:49.111Z,100441.58
2018-12-11T20:35:51.740Z,100452.77
2018-12-11T20:40:54.205Z,100454.43
2018-12-11T20:45:56.704Z,100452.64
2018-12-11T20:50:59.171Z,100459.70
2018-12-11T20:56:01.640Z,100458.97
2018-12-11T21:01:04.252Z,100463.57
2018-12-11T21:06:06.746Z,100461.05
2018-12-11T21:11:09.233Z,100461.64
2018-12-11T21:16:12.288Z,100465.80
2018-12-11T21:21:15.327Z,100462.05
2018-12-11T21:26:18.550Z,100470.75
2018-12-11T21:31:21.280Z,100473.17
2018-12-11T21:36:23.804Z,100469.20
2018-12-11T21:41:26.464Z,100475.78
2018-12-11T21:46:28.933Z,100473.95
2018-12-11T21:51:31.407Z,100476.79
2018-12-11T21:56:34.291Z,100480.95
2018-12-11T22:01:36.788Z,100482.72
2018-12-11T22:06:39.256Z,100486.49
2018-12-11T22:11:42.641Z,100486.88
2018-12-11T22:16:45.139Z,100487.87
2018-12-11T22:21:47.701Z,100487.87
2018-12-11T22:26:50.192Z,100490.66
2018-12-11T22:31:52.684Z,100495.00
2018-12-11T22:36:56.070Z,100503.50
2018-12-11T22:41:58.597Z,100500.92
2018-12-11T22:47:01.102Z,100507.09
2018-12-11T22:52:03.779Z,100518.95
2018-12-11T22:57:06.281Z,100524.35
2018-12-11T23:02:08.870Z,100527.67
2018-12-11T23:07:11.560Z,100526.70
2018-12-11T23:12:14.976Z,100533.22
2018-12-11T23:17:17.681Z,100537.38
2018-12-11T23:22:20.277Z,100536.98
2018-12-11T23:27:22.765Z,100531.83
2018-12-11T23:32:25.253Z,100549.70
2018-12-11T23:37:27.755Z,100549.66
2018-12-11T23:42:30.853Z,100552.03
2018-12-11T23:47:33.495Z,100557.57
2018-12-11T23:52:36.140Z,100563.52
2018-12-11T23:57:38.640Z,100565.55
